Terminal Aerodrome Forecast
Issued by NWS

Home | Current Version | Previous Version | Text Only | Print | Product List | Glossary On
Versions: 1 2 3 4 5 6 7 8 9 10 11 12 13 14 15 16 17 18 19 20 21 22 23 24 25 26 27 28 29 30
000
FTUS45 KLKN 100000 AAB
TAFEKO
TAF AMD
KEKO 100023Z 1000/1024 30010G20KT P6SM VCTS BKN100CB
      TEMPO 1000/1002 VRB25G35KT 3SM -TSRA BKN090CB
     FM100400 VRB05KT P6SM SCT120 BKN200
     FM102000 24007KT P6SM VCTS BKN100CB=

USA.gov is the U.S. government's official web portal to all federal, state and local government web resources and services.